createdAt,value
2023-09-18T00:01:21.423Z,9.60
2023-09-18T00:03:49.245Z,9.27
2023-09-18T00:06:16.963Z,10.77
2023-09-18T00:08:44.601Z,10.53
2023-09-18T00:11:12.986Z,10.30
2023-09-18T00:13:40.669Z,10.27
2023-09-18T00:16:08.354Z,9.97
2023-09-18T00:18:35.999Z,9.43
2023-09-18T00:21:03.922Z,9.90
2023-09-18T00:23:32.876Z,11.23
2023-09-18T00:26:00.484Z,10.47
2023-09-18T00:28:28.095Z,10.90
2023-09-18T00:30:55.882Z,11.93
2023-09-18T00:33:23.581Z,11.03
2023-09-18T00:35:52.802Z,11.30
2023-09-18T00:38:23.232Z,12.20
2023-09-18T00:40:50.881Z,14.07
2023-09-18T00:43:19.258Z,12.93
2023-09-18T00:45:49.445Z,11.90
2023-09-18T00:48:17.962Z,12.20
2023-09-18T00:50:46.950Z,14.07
2023-09-18T00:53:24.491Z,11.43
2023-09-18T00:55:57.650Z,12.27
2023-09-18T00:58:26.447Z,11.77
2023-09-18T01:00:54.499Z,12.20
2023-09-18T01:03:24.133Z,11.30
2023-09-18T01:05:51.844Z,12.60
2023-09-18T01:08:19.478Z,11.63
2023-09-18T01:10:50.614Z,11.40
2023-09-18T01:13:31.327Z,11.43
2023-09-18T01:16:16.774Z,11.50
2023-09-18T01:18:52.028Z,10.90
2023-09-18T01:21:23.163Z,10.57
2023-09-18T01:23:50.948Z,10.57
2023-09-18T01:26:18.644Z,10.90
2023-09-18T01:28:46.353Z,10.10
2023-09-18T01:31:13.962Z,10.13
2023-09-18T01:33:42.105Z,10.70
2023-09-18T01:36:10.744Z,10.17
2023-09-18T01:38:39.140Z,11.60
2023-09-18T01:41:06.871Z,10.93
2023-09-18T01:43:36.001Z,10.83
2023-09-18T01:46:05.173Z,11.50
2023-09-18T01:48:33.606Z,10.67
2023-09-18T01:51:01.421Z,10.07
2023-09-18T01:53:28.997Z,10.40
2023-09-18T01:55:56.755Z,10.20
2023-09-18T01:58:24.383Z,10.27
2023-09-18T02:00:52.830Z,10.17
2023-09-18T02:04:04.626Z,10.43
2023-09-18T02:06:12.639Z,11.00
2023-09-18T02:08:40.496Z,10.17
2023-09-18T02:11:08.248Z,9.63
2023-09-18T02:13:35.834Z,10.27
2023-09-18T02:16:04.713Z,10.20
2023-09-18T02:18:32.348Z,11.10
2023-09-18T02:20:59.904Z,10.83
2023-09-18T02:23:27.524Z,10.70
2023-09-18T02:26:01.211Z,10.93
2023-09-18T02:28:28.837Z,11.60
2023-09-18T02:30:56.393Z,12.30
2023-09-18T02:33:24.048Z,11.43
2023-09-18T02:35:51.891Z,11.23
2023-09-18T02:38:19.520Z,11.33
2023-09-18T02:40:47.281Z,10.90
2023-09-18T02:43:14.902Z,11.50
2023-09-18T02:45:42.516Z,11.63
2023-09-18T02:48:10.165Z,11.40
2023-09-18T02:50:37.818Z,10.93
2023-09-18T02:53:09.991Z,11.23
2023-09-18T02:55:37.761Z,11.30
2023-09-18T02:58:05.356Z,11.63
2023-09-18T03:00:43.461Z,10.83
2023-09-18T03:03:12.993Z,10.97
2023-09-18T03:05:42.321Z,11.70
2023-09-18T03:08:11.391Z,10.17
2023-09-18T03:10:43.656Z,11.30
2023-09-18T03:13:14.324Z,10.93
2023-09-18T03:15:46.294Z,12.00
2023-09-18T03:18:14.292Z,11.50
2023-09-18T03:20:42.213Z,11.03
2023-09-18T03:23:09.851Z,11.50
2023-09-18T03:25:49.154Z,11.20
2023-09-18T03:28:19.805Z,12.10
2023-09-18T03:30:47.366Z,11.30
2023-09-18T03:33:15.043Z,11.33
2023-09-18T03:35:56.060Z,11.13
2023-09-18T03:38:24.167Z,10.60
2023-09-18T03:40:51.953Z,11.20
2023-09-18T03:43:19.597Z,11.03
2023-09-18T03:45:47.173Z,10.63
2023-09-18T03:48:14.837Z,11.27
2023-09-18T03:50:43.206Z,11.67
2023-09-18T03:53:12.241Z,11.20
2023-09-18T03:55:39.999Z,11.10
2023-09-18T03:58:07.725Z,10.80
2023-09-18T04:00:35.368Z,13.93
2023-09-18T04:03:03.067Z,11.13
2023-09-18T04:05:30.723Z,11.57
2023-09-18T04:07:58.378Z,11.57
2023-09-18T04:10:27.494Z,11.37
2023-09-18T04:12:55.074Z,10.93
2023-09-18T04:15:24.347Z,11.27
2023-09-18T04:17:52.034Z,11.60
2023-09-18T04:20:20.285Z,11.17
2023-09-18T04:22:53.647Z,11.23
2023-09-18T04:25:21.427Z,11.33
2023-09-18T04:27:52.436Z,11.60
2023-09-18T04:30:21.188Z,12.40
2023-09-18T04:32:49.050Z,12.17
2023-09-18T04:35:16.866Z,12.23
2023-09-18T04:37:44.464Z,11.67
2023-09-18T04:40:12.858Z,12.60
2023-09-18T04:42:44.716Z,12.20
2023-09-18T04:45:12.301Z,11.53
2023-09-18T04:47:39.942Z,11.80
2023-09-18T04:50:13.174Z,11.90
2023-09-18T04:52:44.894Z,12.40
2023-09-18T04:55:12.866Z,12.23
2023-09-18T04:57:40.453Z,13.27
2023-09-18T05:00:18.124Z,12.50
2023-09-18T05:02:46.658Z,11.93
2023-09-18T05:05:15.450Z,11.60
2023-09-18T05:07:43.630Z,11.23
2023-09-18T05:10:11.790Z,11.53
2023-09-18T05:12:42.706Z,12.13
2023-09-18T05:15:11.481Z,14.70
2023-09-18T05:17:48.201Z,11.83
2023-09-18T05:20:19.631Z,12.67
2023-09-18T05:22:47.429Z,13.00
2023-09-18T05:25:18.346Z,12.60
2023-09-18T05:27:46.571Z,12.80
2023-09-18T05:30:23.562Z,13.27
2023-09-18T05:32:51.303Z,13.37
2023-09-18T05:35:19.121Z,13.53
2023-09-18T05:37:46.722Z,13.30
2023-09-18T05:40:15.396Z,12.90
2023-09-18T05:42:45.042Z,12.43
2023-09-18T05:45:13.978Z,12.93
2023-09-18T05:47:44.151Z,12.87
2023-09-18T05:50:17.599Z,13.90
2023-09-18T05:52:47.787Z,14.80
2023-09-18T05:55:16.888Z,16.87
2023-09-18T05:57:44.810Z,12.47
2023-09-18T06:00:14.540Z,12.23
2023-09-18T06:02:42.568Z,13.03
2023-09-18T06:05:13.109Z,12.83
2023-09-18T06:07:40.907Z,12.43
2023-09-18T06:10:10.786Z,13.43
2023-09-18T06:12:41.446Z,12.70
2023-09-18T06:15:11.381Z,13.50
2023-09-18T06:17:44.874Z,13.40
2023-09-18T06:20:17.543Z,13.87
2023-09-18T06:22:45.838Z,12.77
2023-09-18T06:25:14.537Z,13.20
2023-09-18T06:27:43.586Z,12.40
2023-09-18T06:30:11.759Z,12.30
2023-09-18T06:32:39.565Z,12.17
2023-09-18T06:35:07.716Z,13.37
2023-09-18T06:37:35.461Z,12.20
2023-09-18T06:40:05.613Z,11.90
2023-09-18T06:42:34.112Z,12.30
2023-09-18T06:45:02.873Z,11.80
2023-09-18T06:47:30.872Z,11.57
2023-09-18T06:49:59.092Z,11.30
2023-09-18T06:52:27.977Z,10.90
2023-09-18T06:54:55.724Z,10.50
2023-09-18T06:57:23.329Z,10.97
2023-09-18T06:59:51.041Z,10.80
2023-09-18T07:02:18.950Z,9.83
2023-09-18T07:04:47.544Z,9.60
2023-09-18T07:07:16.366Z,9.67
2023-09-18T07:09:59.390Z,9.90
2023-09-18T07:12:32.906Z,9.20
2023-09-18T07:15:04.795Z,8.63
2023-09-18T07:17:33.073Z,8.73
2023-09-18T07:20:01.801Z,11.17
2023-09-18T07:22:31.106Z,9.03
2023-09-18T07:24:59.607Z,9.10
2023-09-18T07:27:27.203Z,8.90
2023-09-18T07:29:58.566Z,9.23
2023-09-18T07:32:37.378Z,8.70
2023-09-18T07:35:08.220Z,8.87
2023-09-18T07:37:37.119Z,9.60
2023-09-18T07:40:08.094Z,8.95
2023-09-18T07:42:35.905Z,8.68
2023-09-18T07:45:04.087Z,8.05
2023-09-18T07:47:32.636Z,9.07
2023-09-18T07:50:01.752Z,9.80
2023-09-18T07:52:30.929Z,8.85
2023-09-18T07:54:59.480Z,8.07
2023-09-18T07:57:33.265Z,8.43
2023-09-18T08:00:03.817Z,11.57
2023-09-18T08:02:33.125Z,8.25
2023-09-18T08:05:00.855Z,9.18
2023-09-18T08:07:29.367Z,8.45
2023-09-18T08:09:57.126Z,8.57
2023-09-18T08:12:25.679Z,9.00
2023-09-18T08:14:53.268Z,8.93
2023-09-18T08:17:20.944Z,8.73
2023-09-18T08:19:55.625Z,9.60
2023-09-18T08:22:23.288Z,8.93
2023-09-18T08:24:53.871Z,9.15
2023-09-18T08:27:21.815Z,8.95
2023-09-18T08:29:49.523Z,8.82
2023-09-18T08:34:49.393Z,9.32
2023-09-18T08:37:18.386Z,8.43
2023-09-18T08:39:45.957Z,9.73
2023-09-18T08:42:16.014Z,8.93
2023-09-18T08:44:45.927Z,7.63
2023-09-18T08:47:15.474Z,10.98
2023-09-18T08:49:45.374Z,7.85
2023-09-18T08:52:14.355Z,8.45
2023-09-18T08:54:42.080Z,9.80
2023-09-18T08:57:10.483Z,7.43
2023-09-18T08:59:40.897Z,8.90
2023-09-18T09:02:12.847Z,8.50
2023-09-18T09:04:41.157Z,8.48
2023-09-18T09:07:09.954Z,8.40
2023-09-18T09:09:37.832Z,10.27
2023-09-18T09:12:06.155Z,8.25
2023-09-18T09:14:33.955Z,9.50
2023-09-18T09:17:01.787Z,9.55
2023-09-18T09:19:40.249Z,8.63
2023-09-18T09:22:09.262Z,10.75
2023-09-18T09:24:43.062Z,9.15
2023-09-18T09:27:12.041Z,10.73
2023-09-18T09:29:39.868Z,8.73
2023-09-18T09:32:19.252Z,9.43
2023-09-18T09:34:47.788Z,10.43
2023-09-18T09:37:15.501Z,9.07
2023-09-18T09:39:52.807Z,8.55
2023-09-18T09:42:29.820Z,8.25
2023-09-18T09:45:06.179Z,10.05
2023-09-18T09:47:37.638Z,8.02
2023-09-18T09:50:33.483Z,8.23
2023-09-18T09:53:01.705Z,8.55
2023-09-18T09:55:35.231Z,8.80
2023-09-18T09:58:08.307Z,8.48
2023-09-18T10:00:51.136Z,8.80
2023-09-18T10:03:25.166Z,8.43
2023-09-18T10:05:56.881Z,12.60
2023-09-18T10:08:27.947Z,8.45
2023-09-18T10:11:10.153Z,8.48
2023-09-18T10:14:01.312Z,7.57
2023-09-18T10:16:33.377Z,8.13
2023-09-18T10:19:25.326Z,8.48
2023-09-18T10:22:38.595Z,8.10
2023-09-18T10:25:19.630Z,7.95
2023-09-18T10:27:50.664Z,7.78
2023-09-18T10:30:19.639Z,8.18
2023-09-18T10:32:49.794Z,8.10
2023-09-18T10:35:18.294Z,7.18
2023-09-18T10:37:49.116Z,8.23
2023-09-18T10:40:18.765Z,7.65
2023-09-18T10:42:48.424Z,7.57
2023-09-18T10:45:17.259Z,8.00
2023-09-18T10:47:48.827Z,7.43
2023-09-18T10:50:28.010Z,8.13
2023-09-18T10:52:58.942Z,7.03
2023-09-18T10:55:28.236Z,10.07
2023-09-18T10:58:01.647Z,7.60
2023-09-18T11:00:32.437Z,8.55
2023-09-18T11:03:19.354Z,8.45
2023-09-18T11:05:48.425Z,7.80
2023-09-18T11:08:35.382Z,8.38
2023-09-18T11:11:12.598Z,8.65
2023-09-18T11:13:45.102Z,8.65
2023-09-18T11:16:28.299Z,8.68
2023-09-18T11:19:10.073Z,10.57
2023-09-18T11:21:38.007Z,8.30
2023-09-18T11:24:12.613Z,10.25
2023-09-18T11:26:45.601Z,8.70
2023-09-18T11:29:17.053Z,8.32
2023-09-18T11:31:55.309Z,8.35
2023-09-18T11:34:24.752Z,8.07
2023-09-18T11:36:53.210Z,8.90
2023-09-18T11:39:41.867Z,8.50
2023-09-18T11:42:23.748Z,8.00
2023-09-18T11:44:51.715Z,8.70
2023-09-18T11:47:23.644Z,8.60
2023-09-18T11:49:56.323Z,9.23
2023-09-18T11:52:27.357Z,8.38
2023-09-18T11:54:59.405Z,11.82
2023-09-18T11:57:28.002Z,8.07
2023-09-18T11:59:57.130Z,11.80
2023-09-18T12:02:37.046Z,8.48
2023-09-18T12:05:20.944Z,8.45
2023-09-18T12:07:49.305Z,7.75
2023-09-18T12:10:19.175Z,7.93
2023-09-18T12:12:47.284Z,8.25
2023-09-18T12:15:18.333Z,9.02
2023-09-18T12:17:47.535Z,7.45
2023-09-18T12:20:21.701Z,8.07
2023-09-18T12:22:51.990Z,7.32
2023-09-18T12:25:20.064Z,8.18
2023-09-18T12:27:53.085Z,7.45
2023-09-18T12:30:24.100Z,6.43
2023-09-18T12:32:54.116Z,6.63
2023-09-18T12:35:22.761Z,5.68
2023-09-18T12:37:50.988Z,6.38
2023-09-18T12:40:34.456Z,7.43
2023-09-18T12:43:02.597Z,5.90
2023-09-18T12:45:31.217Z,5.30
2023-09-18T12:48:00.025Z,6.68
2023-09-18T12:50:28.543Z,5.30
2023-09-18T12:53:12.998Z,5.85
2023-09-18T12:55:42.150Z,5.78
2023-09-18T12:58:13.227Z,5.10
2023-09-18T13:00:48.459Z,5.03
2023-09-18T13:03:16.179Z,5.47
2023-09-18T13:05:44.760Z,4.55
2023-09-18T13:08:13.738Z,4.35
2023-09-18T13:10:51.890Z,5.10
2023-09-18T13:13:24.234Z,4.65
2023-09-18T13:15:54.904Z,5.72
2023-09-18T13:18:31.824Z,4.38
2023-09-18T13:20:59.933Z,4.82
2023-09-18T13:23:34.243Z,4.50
2023-09-18T13:26:04.460Z,5.32
2023-09-18T13:28:34.437Z,8.52
2023-09-18T13:31:08.191Z,5.47
2023-09-18T13:33:41.902Z,5.20
2023-09-18T13:36:10.006Z,4.40
2023-09-18T13:38:37.661Z,5.00
2023-09-18T13:41:06.872Z,5.20
2023-09-18T13:43:37.208Z,4.15
2023-09-18T13:46:08.086Z,4.40
2023-09-18T13:48:35.704Z,4.90
2023-09-18T13:51:04.934Z,5.07
2023-09-18T13:53:32.647Z,4.75
2023-09-18T13:56:00.325Z,4.72
2023-09-18T13:58:27.924Z,5.03
2023-09-18T14:00:55.552Z,7.07
2023-09-18T14:03:24.938Z,4.97
2023-09-18T14:05:52.989Z,4.68
2023-09-18T14:08:20.687Z,7.50
2023-09-18T14:10:48.252Z,6.32
2023-09-18T14:13:15.917Z,5.07
2023-09-18T14:15:43.591Z,4.20
2023-09-18T14:18:11.772Z,5.10
2023-09-18T14:20:39.433Z,4.50
2023-09-18T14:23:07.709Z,5.15
2023-09-18T14:25:35.351Z,4.25
2023-09-18T14:28:03.007Z,6.38
2023-09-18T14:30:32.898Z,5.35
2023-09-18T14:33:02.763Z,5.07
2023-09-18T14:35:30.581Z,4.20
2023-09-18T14:37:58.247Z,7.53
2023-09-18T14:40:25.973Z,5.35
2023-09-18T14:42:53.931Z,5.30
2023-09-18T14:45:21.638Z,5.40
2023-09-18T14:47:49.479Z,4.82
2023-09-18T14:50:17.127Z,5.15
2023-09-18T14:52:44.983Z,5.20
2023-09-18T14:55:14.072Z,6.03
2023-09-18T14:57:41.846Z,4.50
2023-09-18T15:00:10.231Z,6.72
2023-09-18T15:02:38.119Z,5.35
2023-09-18T15:05:10.476Z,6.55
2023-09-18T15:07:38.036Z,4.97
2023-09-18T15:10:06.594Z,5.07
2023-09-18T15:12:34.573Z,5.20
2023-09-18T15:15:02.392Z,4.93
2023-09-18T15:17:30.413Z,6.50
2023-09-18T15:19:58.329Z,6.90
2023-09-18T15:22:26.613Z,5.68
2023-09-18T15:24:55.070Z,6.45
2023-09-18T15:27:23.472Z,6.43
2023-09-18T15:29:51.191Z,7.85
2023-09-18T15:32:18.837Z,5.22
2023-09-18T15:34:46.558Z,5.80
2023-09-18T15:37:15.181Z,6.55
2023-09-18T15:39:43.367Z,5.65
2023-09-18T15:42:11.033Z,6.53
2023-09-18T15:44:39.379Z,8.63
2023-09-18T15:47:07.444Z,5.80
2023-09-18T15:49:35.100Z,7.57
2023-09-18T15:52:04.387Z,7.22
2023-09-18T15:54:31.941Z,6.18
2023-09-18T15:56:59.616Z,7.90
2023-09-18T15:59:27.240Z,7.63
2023-09-18T16:01:54.959Z,10.30
2023-09-18T16:04:22.724Z,6.45
2023-09-18T16:06:51.244Z,5.97
2023-09-18T16:09:18.968Z,7.25
2023-09-18T16:11:49.003Z,7.07
2023-09-18T16:14:23.835Z,6.72
2023-09-18T16:16:52.812Z,6.80
2023-09-18T16:19:20.544Z,6.80
2023-09-18T16:21:48.219Z,6.38
2023-09-18T16:24:17.214Z,5.93
2023-09-18T16:26:44.864Z,6.70
2023-09-18T16:29:12.499Z,6.40
2023-09-18T16:31:40.206Z,7.78
2023-09-18T16:34:08.166Z,7.60
2023-09-18T16:36:35.847Z,9.80
2023-09-18T16:39:03.897Z,8.38
2023-09-18T16:41:31.516Z,9.55
2023-09-18T16:43:59.203Z,8.20
2023-09-18T16:46:27.046Z,8.80
2023-09-18T16:48:55.781Z,10.20
2023-09-18T16:51:25.387Z,10.40
2023-09-18T16:53:54.930Z,10.02
2023-09-18T16:56:22.777Z,10.10
2023-09-18T16:58:50.342Z,10.27
2023-09-18T17:01:17.971Z,10.55
2023-09-18T17:03:45.884Z,13.70
2023-09-18T17:06:13.794Z,12.95
2023-09-18T17:08:44.062Z,16.27
2023-09-18T17:11:12.429Z,12.77
2023-09-18T17:13:40.354Z,12.20
2023-09-18T17:16:12.134Z,12.45
2023-09-18T17:18:40.334Z,12.35
2023-09-18T17:21:08.168Z,11.95
2023-09-18T17:23:36.603Z,13.38
2023-09-18T17:26:06.462Z,13.05
2023-09-18T17:28:35.040Z,12.35
2023-09-18T17:31:02.700Z,14.07
2023-09-18T17:33:30.364Z,12.98
2023-09-18T17:35:59.059Z,12.80
2023-09-18T17:38:29.199Z,12.95
2023-09-18T17:40:56.907Z,12.80
2023-09-18T17:43:24.533Z,13.73
2023-09-18T17:45:54.663Z,19.40
2023-09-18T17:48:22.614Z,14.07
2023-09-18T17:50:53.486Z,17.65
2023-09-18T17:53:21.244Z,14.45
2023-09-18T17:55:50.268Z,21.02
2023-09-18T17:58:18.229Z,16.00
2023-09-18T18:00:49.402Z,14.32
2023-09-18T18:03:19.194Z,14.82
2023-09-18T18:05:47.316Z,14.95
2023-09-18T18:08:15.401Z,18.38
2023-09-18T18:10:46.988Z,14.13
2023-09-18T18:13:15.067Z,13.50
2023-09-18T18:15:44.425Z,13.80
2023-09-18T18:18:14.240Z,14.02
2023-09-18T18:20:46.609Z,14.15
2023-09-18T18:23:14.440Z,14.10
2023-09-18T18:25:42.176Z,13.77
2023-09-18T18:28:10.500Z,14.13
2023-09-18T18:30:38.386Z,13.98
2023-09-18T18:33:06.246Z,15.80
2023-09-18T18:35:34.042Z,13.80
2023-09-18T18:38:01.633Z,14.45
2023-09-18T18:40:29.275Z,15.10
2023-09-18T18:42:57.544Z,14.77
2023-09-18T18:45:27.319Z,16.35
2023-09-18T18:47:56.645Z,13.65
2023-09-18T18:50:24.282Z,13.40
2023-09-18T18:52:53.228Z,13.18
2023-09-18T18:55:20.874Z,13.70
2023-09-18T18:57:48.749Z,13.10
2023-09-18T19:00:16.975Z,13.15
2023-09-18T19:02:46.583Z,13.90
2023-09-18T19:05:15.916Z,14.15
2023-09-18T19:07:44.237Z,13.60
2023-09-18T19:10:12.358Z,14.80
2023-09-18T19:12:42.091Z,14.98
2023-09-18T19:15:11.211Z,13.20
2023-09-18T19:17:38.962Z,13.50
2023-09-18T19:20:17.611Z,13.40
2023-09-18T19:22:45.286Z,13.65
2023-09-18T19:25:13.332Z,14.07
2023-09-18T19:27:41.616Z,14.20
2023-09-18T19:30:09.647Z,13.75
2023-09-18T19:32:39.664Z,13.00
2023-09-18T19:35:08.723Z,13.40
2023-09-18T19:37:36.403Z,15.13
2023-09-18T19:40:04.343Z,13.52
2023-09-18T19:42:31.911Z,16.63
2023-09-18T19:45:00.547Z,12.30
2023-09-18T19:47:29.037Z,13.50
2023-09-18T19:49:56.927Z,13.38
2023-09-18T19:52:24.744Z,12.85
2023-09-18T19:54:52.960Z,15.00
2023-09-18T19:57:20.559Z,18.10
2023-09-18T19:59:52.237Z,13.07
2023-09-18T20:02:20.246Z,12.98
2023-09-18T20:04:47.924Z,13.43
2023-09-18T20:07:15.544Z,12.95
2023-09-18T20:09:43.589Z,14.27
2023-09-18T20:12:11.372Z,13.88
2023-09-18T20:14:39.116Z,13.27
2023-09-18T20:17:06.749Z,13.38
2023-09-18T20:19:35.391Z,15.15
2023-09-18T20:22:04.156Z,14.65
2023-09-18T20:24:32.547Z,14.40
2023-09-18T20:27:00.204Z,17.23
2023-09-18T20:29:27.855Z,13.75
2023-09-18T20:31:55.574Z,13.50
2023-09-18T20:34:24.958Z,13.50
2023-09-18T20:36:53.273Z,12.65
2023-09-18T20:39:21.017Z,13.23
2023-09-18T20:41:48.683Z,13.45
2023-09-18T20:44:16.446Z,13.45
2023-09-18T20:46:44.001Z,12.23
2023-09-18T20:49:11.672Z,12.90
2023-09-18T20:51:39.228Z,12.35
2023-09-18T20:54:07.090Z,11.95
2023-09-18T20:56:35.869Z,12.35
2023-09-18T20:59:05.210Z,13.55
2023-09-18T21:01:33.171Z,13.55
2023-09-18T21:04:00.947Z,13.75
2023-09-18T21:06:28.645Z,14.52
2023-09-18T21:08:56.821Z,13.20
2023-09-18T21:11:24.618Z,13.00
2023-09-18T21:13:52.230Z,13.40
2023-09-18T21:16:20.326Z,13.38
2023-09-18T21:18:49.021Z,13.40
2023-09-18T21:21:17.575Z,12.82
2023-09-18T21:23:46.271Z,13.30
2023-09-18T21:26:14.264Z,14.40
2023-09-18T21:28:42.483Z,13.47
2023-09-18T21:31:13.582Z,14.38
2023-09-18T21:33:43.709Z,13.95
2023-09-18T21:36:22.668Z,14.35
2023-09-18T21:38:51.081Z,14.07
2023-09-18T21:41:20.705Z,16.75
2023-09-18T21:43:48.933Z,14.98
2023-09-18T21:46:16.774Z,13.25
2023-09-18T21:48:44.837Z,13.77
2023-09-18T21:51:17.582Z,14.67
2023-09-18T21:53:48.528Z,20.17
2023-09-18T21:56:16.374Z,21.17
2023-09-18T21:58:44.584Z,14.73
2023-09-18T22:01:14.091Z,14.67
2023-09-18T22:03:42.527Z,14.23
2023-09-18T22:06:10.298Z,14.43
2023-09-18T22:08:39.235Z,13.60
2023-09-18T22:11:08.051Z,13.25
2023-09-18T22:13:37.163Z,11.98
2023-09-18T22:16:06.033Z,12.98
2023-09-18T22:18:34.041Z,12.05
2023-09-18T22:21:05.108Z,12.50
2023-09-18T22:23:33.244Z,11.52
2023-09-18T22:26:03.589Z,13.40
2023-09-18T22:28:32.168Z,11.10
2023-09-18T22:30:59.799Z,13.55
2023-09-18T22:33:28.594Z,8.50
2023-09-18T22:35:56.429Z,7.70
2023-09-18T22:39:12.329Z,6.82
2023-09-18T22:41:42.506Z,5.60
2023-09-18T22:45:06.038Z,5.13
2023-09-18T22:48:29.401Z,5.00
2023-09-18T22:51:52.644Z,7.88
2023-09-18T22:54:19.948Z,5.80
2023-09-18T22:56:48.355Z,5.72
2023-09-18T22:59:15.977Z,4.28
2023-09-18T23:01:43.733Z,5.65
2023-09-18T23:04:15.085Z,5.07
2023-09-18T23:06:44.101Z,5.03
2023-09-18T23:09:17.222Z,4.68
2023-09-18T23:11:47.244Z,4.57
2023-09-18T23:14:14.786Z,6.93
2023-09-18T23:16:42.343Z,4.82
2023-09-18T23:19:10.087Z,4.53
2023-09-18T23:21:40.049Z,4.00
2023-09-18T23:24:12.401Z,4.07
2023-09-18T23:26:40.750Z,5.88
2023-09-18T23:29:09.571Z,5.67
2023-09-18T23:31:38.121Z,6.17
2023-09-18T23:34:07.901Z,4.60
2023-09-18T23:36:35.593Z,5.57
2023-09-18T23:39:09.100Z,5.83
2023-09-18T23:41:52.265Z,6.67
2023-09-18T23:44:23.100Z,3.80
2023-09-18T23:46:53.070Z,3.23
2023-09-18T23:49:21.558Z,4.63
2023-09-18T23:51:49.255Z,3.80
2023-09-18T23:54:17.184Z,4.50
2023-09-18T23:56:47.815Z,3.93
2023-09-18T23:59:15.519Z,5.10
